McVille, Kentucky
Current Conditions -  °F | °C
As of 4:52 AM on Sunday 23 Nov 2014 (Local Time) from KCVG Reporting Station
Overcast Overcast  
Wind Chill: 51°   Ceiling: 8000
Heat Index: 51°   Visibility: 10mi
Dew Point: 37°   Wind: 10mph
Humidity: 59%   Direction: 180°S
Pressure: 30.01"   Gusts: NA
Location:  39.0238°N, 84.7647°W
Report Text: KCVG 230952Z 18009KT 10SM OVC080 11/03 A3001 RMK AO2 SLP158 T01060028
Loading
Personal Weather Stations






























Interactive Weather Map New forecast layout! Learn more

10-Day Weather Forecast

Advertisements
Track Severe Weather on mobile